Fleming, Pennsylvania
Current Conditions -  °F | °C
As of 8:53 PM on Friday 24 Oct 2014 (Local Time) from KUNV Reporting Station
Clear Clear  
Wind Chill: 52°   Ceiling: Unl
Heat Index: 52°   Visibility: 10mi
Dew Point: 37°   Wind: 7mph
Humidity: 58%   Direction: 270°W
Pressure: 29.96"   Gusts: NA
Location:  40.91°N, 77.88°W
Report Text: KUNV 250053Z 27006KT 10SM SKC 11/03 A2996
Loading
Personal Weather Stations






























Interactive Weather Map
Tropical Storm Tracking
New forecast layout! Learn more

10-Day Weather Forecast

Advertisements
Track Severe Weather on mobile